createdAt,value
2023-11-19T00:00:15.573Z,0.47
2023-11-19T00:02:43.294Z,0.45
2023-11-19T00:05:13.217Z,0.40
2023-11-19T00:07:43.845Z,0.65
2023-11-19T00:10:14.784Z,0.80
2023-11-19T00:12:46.267Z,0.90
2023-11-19T00:15:13.675Z,1.10
2023-11-19T00:17:46.917Z,0.90
2023-11-19T00:20:14.829Z,0.80
2023-11-19T00:25:12.429Z,1.10
2023-11-19T00:27:39.121Z,0.70
2023-11-19T00:30:07.540Z,0.70
2023-11-19T00:32:34.332Z,1.10
2023-11-19T00:35:01.250Z,1.20
2023-11-19T00:37:27.808Z,1.15
2023-11-19T00:39:54.596Z,0.70
2023-11-19T00:42:21.717Z,0.60
2023-11-19T00:47:18.724Z,0.57
2023-11-19T00:49:45.251Z,0.50
2023-11-19T00:52:11.805Z,0.60
2023-11-19T00:54:38.304Z,0.60
2023-11-19T00:57:05.108Z,0.70
2023-11-19T00:59:31.708Z,0.60
2023-11-19T01:01:58.350Z,0.60
2023-11-19T01:04:25.503Z,0.60
2023-11-19T01:06:52.180Z,0.70
2023-11-19T01:09:18.753Z,0.70
2023-11-19T01:11:45.784Z,0.55
2023-11-19T01:14:12.494Z,0.60
2023-11-19T01:16:39.181Z,0.50
2023-11-19T01:19:15.291Z,0.93
2023-11-19T01:21:44.820Z,0.70
2023-11-19T01:24:13.546Z,0.70
2023-11-19T01:26:49.136Z,0.80
2023-11-19T01:29:16.067Z,1.00
2023-11-19T01:31:47.286Z,0.70
2023-11-19T01:34:13.962Z,1.80
2023-11-19T01:36:40.512Z,1.10
2023-11-19T01:39:07.423Z,1.33
2023-11-19T01:41:37.406Z,0.60
2023-11-19T01:44:04.535Z,0.60
2023-11-19T01:46:35.336Z,0.75
2023-11-19T01:49:03.634Z,0.80
2023-11-19T01:51:30.446Z,0.57
2023-11-19T01:53:58.806Z,0.50
2023-11-19T01:56:28.022Z,0.50
2023-11-19T01:58:56.191Z,0.50
2023-11-19T02:01:23.191Z,0.50
2023-11-19T02:03:50.136Z,0.40
2023-11-19T02:06:16.941Z,0.75
2023-11-19T02:08:44.699Z,0.47
2023-11-19T02:11:11.912Z,0.40
2023-11-19T02:13:39.504Z,0.50
2023-11-19T02:16:07.665Z,0.52
2023-11-19T02:18:34.340Z,0.43
2023-11-19T02:21:04.199Z,0.40
2023-11-19T02:23:31.462Z,0.40
2023-11-19T02:26:04.069Z,0.57
2023-11-19T02:28:30.862Z,0.50
2023-11-19T02:30:58.029Z,0.50
2023-11-19T02:33:26.027Z,0.50
2023-11-19T02:35:52.584Z,0.40
2023-11-19T02:38:19.116Z,0.40
2023-11-19T02:40:45.676Z,0.40
2023-11-19T02:43:12.270Z,0.50
2023-11-19T02:45:38.826Z,0.50
2023-11-19T02:48:07.345Z,0.40
2023-11-19T02:50:34.084Z,0.50
2023-11-19T02:53:00.906Z,0.40
2023-11-19T02:55:29.596Z,0.30
2023-11-19T02:57:57.529Z,0.35
2023-11-19T03:00:43.475Z,0.38
2023-11-19T03:03:22.108Z,0.50
2023-11-19T03:05:49.207Z,0.43
2023-11-19T03:10:46.495Z,0.40
2023-11-19T03:13:15.091Z,0.50
2023-11-19T03:15:42.114Z,0.70
2023-11-19T03:18:09.115Z,0.60
2023-11-19T03:20:35.980Z,0.52
2023-11-19T03:23:02.812Z,0.70
2023-11-19T03:25:34.879Z,0.90
2023-11-19T03:28:03.484Z,0.80
2023-11-19T03:30:34.600Z,0.90
2023-11-19T03:33:02.726Z,0.90
2023-11-19T03:35:30.099Z,0.77
2023-11-19T03:37:57.107Z,0.60
2023-11-19T03:40:23.866Z,0.70
2023-11-19T03:42:50.443Z,0.60
2023-11-19T03:45:17.073Z,0.50
2023-11-19T03:47:43.929Z,0.70
2023-11-19T03:50:10.615Z,0.60
2023-11-19T03:55:09.660Z,0.80
2023-11-19T03:57:36.544Z,0.63
2023-11-19T04:00:10.995Z,0.70
2023-11-19T04:02:38.583Z,0.60
2023-11-19T04:05:06.341Z,0.90
2023-11-19T04:07:33.051Z,0.90
2023-11-19T04:10:00.028Z,0.95
2023-11-19T04:12:26.728Z,1.20
2023-11-19T04:17:24.216Z,1.10
2023-11-19T04:19:50.997Z,1.13
2023-11-19T04:22:17.684Z,1.40
2023-11-19T04:24:46.652Z,1.60
2023-11-19T04:27:13.731Z,1.20
2023-11-19T04:29:40.284Z,0.80
2023-11-19T04:32:07.135Z,1.10
2023-11-19T04:34:33.688Z,1.20
2023-11-19T04:37:13.215Z,1.10
2023-11-19T04:39:40.502Z,1.30
2023-11-19T04:42:07.800Z,1.20
2023-11-19T04:44:34.660Z,1.55
2023-11-19T04:47:01.688Z,1.55
2023-11-19T04:49:29.015Z,1.52
2023-11-19T04:51:55.751Z,1.50
2023-11-19T04:54:22.431Z,1.42
2023-11-19T04:56:49.839Z,0.77
2023-11-19T04:59:16.454Z,0.75
2023-11-19T05:01:48.060Z,0.75
2023-11-19T05:04:14.882Z,0.65
2023-11-19T05:06:41.543Z,0.40
2023-11-19T05:09:13.143Z,0.70
2023-11-19T05:11:51.573Z,0.50
2023-11-19T05:14:19.856Z,0.90
2023-11-19T05:16:46.551Z,0.82
2023-11-19T05:19:13.220Z,1.08
2023-11-19T05:21:39.780Z,1.42
2023-11-19T05:24:06.586Z,1.20
2023-11-19T05:26:33.534Z,1.10
2023-11-19T05:29:00.257Z,1.48
2023-11-19T05:31:26.777Z,1.60
2023-11-19T05:33:53.415Z,1.40
2023-11-19T05:36:19.928Z,1.50
2023-11-19T05:38:46.516Z,2.10
2023-11-19T05:41:13.114Z,2.30
2023-11-19T05:43:41.634Z,2.20
2023-11-19T05:46:19.664Z,2.38
2023-11-19T05:48:47.954Z,2.25
2023-11-19T05:51:16.196Z,2.33
2023-11-19T05:53:42.877Z,2.20
2023-11-19T05:56:10.792Z,2.55
2023-11-19T05:58:38.437Z,2.60
2023-11-19T06:01:06.290Z,2.22
2023-11-19T06:03:33.015Z,2.55
2023-11-19T06:05:59.823Z,2.45
2023-11-19T06:08:28.269Z,2.75
2023-11-19T06:10:54.905Z,2.47
2023-11-19T06:13:25.114Z,2.65
2023-11-19T06:15:52.369Z,2.72
2023-11-19T06:18:21.330Z,2.85
2023-11-19T06:20:48.415Z,2.70
2023-11-19T06:23:14.973Z,2.50
2023-11-19T06:25:41.567Z,2.50
2023-11-19T06:28:08.532Z,2.40
2023-11-19T06:30:35.104Z,2.33
2023-11-19T06:33:01.820Z,2.90
2023-11-19T06:35:31.020Z,3.15
2023-11-19T06:37:57.658Z,2.60
2023-11-19T06:40:24.270Z,2.97
2023-11-19T06:42:53.485Z,3.58
2023-11-19T06:45:20.066Z,2.95
2023-11-19T06:47:46.745Z,2.90
2023-11-19T06:50:13.464Z,3.15
2023-11-19T06:52:41.101Z,2.72
2023-11-19T06:55:09.412Z,2.38
2023-11-19T06:57:36.538Z,2.40
2023-11-19T07:00:03.236Z,2.30
2023-11-19T07:02:29.867Z,2.53
2023-11-19T07:04:56.551Z,2.63
2023-11-19T07:07:23.091Z,2.95
2023-11-19T07:09:49.763Z,3.20
2023-11-19T07:12:16.595Z,2.85
2023-11-19T07:14:43.574Z,3.75
2023-11-19T07:17:11.380Z,4.05
2023-11-19T07:19:39.512Z,4.00
2023-11-19T07:22:07.354Z,4.00
2023-11-19T07:24:35.132Z,3.70
2023-11-19T07:27:02.871Z,4.93
2023-11-19T07:29:30.229Z,3.95
2023-11-19T07:31:57.881Z,4.10
2023-11-19T07:34:26.034Z,4.60
2023-11-19T07:36:53.305Z,4.40
2023-11-19T07:39:22.131Z,4.53
2023-11-19T07:41:48.745Z,3.60
2023-11-19T07:44:15.298Z,3.67
2023-11-19T07:46:43.466Z,4.82
2023-11-19T07:49:10.892Z,4.57
2023-11-19T07:51:37.619Z,4.15
2023-11-19T07:54:05.154Z,4.57
2023-11-19T07:56:31.833Z,3.92
2023-11-19T07:58:58.399Z,3.60
2023-11-19T08:01:25.012Z,4.38
2023-11-19T08:06:21.425Z,4.32
2023-11-19T08:08:49.149Z,3.40
2023-11-19T08:11:16.245Z,5.03
2023-11-19T08:13:43.153Z,4.90
2023-11-19T08:16:10.786Z,4.82
2023-11-19T08:18:37.528Z,4.80
2023-11-19T08:21:05.857Z,5.30
2023-11-19T08:23:32.549Z,5.15
2023-11-19T08:25:59.135Z,4.60
2023-11-19T08:28:25.625Z,4.68
2023-11-19T08:30:52.213Z,5.18
2023-11-19T08:33:18.733Z,4.90
2023-11-19T08:35:46.244Z,4.88
2023-11-19T08:38:12.783Z,5.05
2023-11-19T08:40:39.923Z,5.07
2023-11-19T08:43:07.532Z,4.78
2023-11-19T08:45:34.058Z,4.93
2023-11-19T08:48:00.706Z,5.00
2023-11-19T08:50:27.347Z,4.93
2023-11-19T08:52:53.868Z,5.25
2023-11-19T08:55:20.584Z,5.68
2023-11-19T08:57:47.475Z,5.75
2023-11-19T09:00:15.431Z,5.10
2023-11-19T09:02:42.083Z,5.00
2023-11-19T09:05:09.207Z,4.95
2023-11-19T09:07:36.423Z,5.55
2023-11-19T09:10:03.053Z,5.30
2023-11-19T09:12:29.717Z,5.30
2023-11-19T09:14:56.319Z,5.25
2023-11-19T09:17:22.889Z,5.78
2023-11-19T09:19:49.608Z,5.80
2023-11-19T09:22:16.127Z,5.72
2023-11-19T09:24:43.530Z,6.20
2023-11-19T09:27:10.061Z,5.93
2023-11-19T09:29:36.616Z,6.72
2023-11-19T09:32:06.005Z,5.43
2023-11-19T09:34:33.058Z,5.68
2023-11-19T09:36:59.609Z,5.35
2023-11-19T09:39:26.753Z,6.32
2023-11-19T09:41:53.579Z,6.15
2023-11-19T09:44:20.390Z,6.40
2023-11-19T09:46:47.669Z,6.13
2023-11-19T09:49:14.886Z,6.43
2023-11-19T09:51:41.882Z,6.57
2023-11-19T09:54:08.426Z,6.20
2023-11-19T09:56:38.678Z,7.10
2023-11-19T09:59:06.379Z,6.22
2023-11-19T10:01:33.225Z,5.60
2023-11-19T10:04:00.580Z,6.15
2023-11-19T10:06:28.075Z,6.47
2023-11-19T10:08:55.038Z,6.20
2023-11-19T10:11:21.548Z,6.05
2023-11-19T10:13:49.487Z,6.35
2023-11-19T10:16:16.487Z,6.78
2023-11-19T10:18:52.022Z,6.15
2023-11-19T10:21:19.988Z,5.75
2023-11-19T10:23:53.866Z,6.30
2023-11-19T10:26:21.542Z,6.05
2023-11-19T10:28:49.131Z,6.47
2023-11-19T10:31:16.756Z,6.18
2023-11-19T10:33:46.031Z,5.35
2023-11-19T10:36:13.437Z,6.10
2023-11-19T10:38:41.518Z,5.72
2023-11-19T10:41:08.524Z,6.05
2023-11-19T10:43:45.868Z,5.97
2023-11-19T10:46:14.061Z,4.95
2023-11-19T10:48:41.416Z,4.68
2023-11-19T10:51:09.316Z,5.15
2023-11-19T10:53:39.789Z,5.10
2023-11-19T10:56:12.763Z,5.47
2023-11-19T10:58:45.926Z,5.57
2023-11-19T11:01:22.111Z,6.55
2023-11-19T11:03:49.187Z,6.50
2023-11-19T11:06:15.877Z,6.05
2023-11-19T11:08:43.948Z,6.57
2023-11-19T11:11:14.364Z,6.50
2023-11-19T11:13:43.509Z,6.25
2023-11-19T11:16:10.430Z,6.88
2023-11-19T11:18:37.644Z,6.43
2023-11-19T11:21:09.729Z,6.82
2023-11-19T11:23:42.460Z,6.55
2023-11-19T11:26:22.046Z,6.15
2023-11-19T11:29:04.901Z,5.85
2023-11-19T11:31:55.134Z,5.88
2023-11-19T11:34:40.266Z,6.20
2023-11-19T11:37:19.210Z,5.97
2023-11-19T11:39:47.983Z,6.43
2023-11-19T11:42:23.722Z,5.53
2023-11-19T11:45:07.393Z,5.60
2023-11-19T11:47:43.322Z,5.88
2023-11-19T11:50:17.693Z,6.18
2023-11-19T11:52:59.722Z,5.95
2023-11-19T11:57:53.292Z,5.85
2023-11-19T12:00:24.085Z,6.03
2023-11-19T12:02:51.054Z,6.38
2023-11-19T12:05:18.307Z,5.68
2023-11-19T12:08:01.202Z,6.45
2023-11-19T12:10:33.217Z,6.93
2023-11-19T12:13:01.205Z,6.45
2023-11-19T12:15:29.091Z,6.15
2023-11-19T12:17:56.638Z,5.97
2023-11-19T12:22:55.750Z,5.20
2023-11-19T12:25:23.010Z,7.18
2023-11-19T12:27:51.161Z,6.07
2023-11-19T12:30:25.748Z,5.70
2023-11-19T12:32:54.803Z,5.60
2023-11-19T12:35:21.564Z,5.55
2023-11-19T12:37:52.252Z,6.18
2023-11-19T12:40:21.754Z,6.32
2023-11-19T12:42:49.241Z,6.75
2023-11-19T12:45:17.371Z,5.93
2023-11-19T12:47:50.970Z,5.55
2023-11-19T12:50:20.139Z,6.82
2023-11-19T12:52:59.488Z,6.00
2023-11-19T12:55:29.363Z,6.43
2023-11-19T12:57:59.115Z,5.63
2023-11-19T13:00:27.461Z,5.85
2023-11-19T13:02:58.609Z,5.97
2023-11-19T13:05:25.659Z,5.17
2023-11-19T13:07:52.223Z,5.45
2023-11-19T13:10:21.014Z,7.32
2023-11-19T13:13:05.190Z,5.78
2023-11-19T13:15:33.249Z,5.57
2023-11-19T13:18:00.565Z,6.25
2023-11-19T13:20:27.442Z,5.63
2023-11-19T13:23:02.552Z,5.70
2023-11-19T13:25:30.044Z,5.85
2023-11-19T13:27:57.451Z,6.50
2023-11-19T13:32:56.597Z,6.10
2023-11-19T13:35:24.193Z,6.15
2023-11-19T13:37:50.862Z,5.30
2023-11-19T13:40:17.557Z,5.72
2023-11-19T13:42:45.236Z,5.22
2023-11-19T13:45:16.245Z,5.18
2023-11-19T13:47:45.156Z,5.57
2023-11-19T13:50:16.075Z,5.38
2023-11-19T13:52:45.998Z,4.97
2023-11-19T13:55:13.019Z,6.03
2023-11-19T13:57:40.718Z,5.72
2023-11-19T14:00:13.972Z,6.00
2023-11-19T14:02:41.962Z,5.82
2023-11-19T14:05:10.180Z,4.43
2023-11-19T14:07:36.685Z,5.88
2023-11-19T14:10:04.264Z,4.93
2023-11-19T14:12:31.490Z,5.80
2023-11-19T14:14:58.155Z,5.15
2023-11-19T14:17:26.204Z,5.63
2023-11-19T14:19:53.176Z,4.88
2023-11-19T14:22:19.728Z,5.72
2023-11-19T14:24:46.326Z,5.05
2023-11-19T14:27:13.235Z,5.28
2023-11-19T14:29:40.883Z,4.65
2023-11-19T14:32:07.579Z,4.60
2023-11-19T14:34:34.456Z,4.47
2023-11-19T14:37:01.860Z,4.68
2023-11-19T14:39:30.105Z,4.10
2023-11-19T14:41:59.440Z,5.35
2023-11-19T14:44:25.922Z,4.18
2023-11-19T14:46:52.607Z,4.53
2023-11-19T14:49:19.263Z,5.85
2023-11-19T14:51:47.658Z,5.93
2023-11-19T14:54:16.914Z,5.00
2023-11-19T14:56:43.863Z,4.75
2023-11-19T14:59:10.536Z,5.55
2023-11-19T15:01:37.387Z,4.88
2023-11-19T15:04:06.076Z,5.32
2023-11-19T15:06:35.191Z,5.00
2023-11-19T15:09:02.106Z,4.63
2023-11-19T15:11:28.682Z,4.38
2023-11-19T15:13:55.204Z,3.67
2023-11-19T15:16:27.134Z,4.00
2023-11-19T15:21:20.305Z,4.55
2023-11-19T15:23:47.024Z,4.82
2023-11-19T15:26:13.722Z,4.47
2023-11-19T15:28:40.412Z,4.15
2023-11-19T15:31:07.125Z,4.70
2023-11-19T15:33:33.676Z,4.90
2023-11-19T15:36:01.607Z,4.40
2023-11-19T15:38:28.288Z,4.40
2023-11-19T15:40:55.770Z,4.60
2023-11-19T15:43:22.300Z,4.05
2023-11-19T15:45:48.894Z,3.92
2023-11-19T15:48:15.479Z,4.30
2023-11-19T15:50:42.294Z,4.28
2023-11-19T15:53:09.628Z,4.88
2023-11-19T15:55:37.049Z,5.22
2023-11-19T15:58:04.888Z,3.90
2023-11-19T16:00:32.719Z,4.50
2023-11-19T16:02:59.482Z,4.38
2023-11-19T16:05:26.107Z,4.85
2023-11-19T16:07:52.642Z,4.97
2023-11-19T16:10:23.832Z,4.88
2023-11-19T16:12:52.217Z,5.30
2023-11-19T16:15:36.652Z,5.22
2023-11-19T16:18:04.537Z,3.92
2023-11-19T16:20:35.038Z,3.90
2023-11-19T16:23:05.180Z,4.28
2023-11-19T16:25:31.947Z,4.43
2023-11-19T16:27:58.551Z,3.75
2023-11-19T16:30:25.262Z,3.78
2023-11-19T16:32:59.876Z,4.43
2023-11-19T16:35:27.294Z,4.03
2023-11-19T16:37:54.191Z,4.38
2023-11-19T16:40:22.659Z,3.70
2023-11-19T16:42:50.557Z,3.83
2023-11-19T16:45:17.254Z,4.53
2023-11-19T16:47:46.244Z,4.03
2023-11-19T16:50:13.435Z,4.43
2023-11-19T16:52:40.465Z,5.63
2023-11-19T16:55:12.554Z,4.22
2023-11-19T16:57:42.620Z,4.35
2023-11-19T17:00:11.781Z,4.25
2023-11-19T17:05:12.035Z,5.20
2023-11-19T17:07:39.020Z,4.75
2023-11-19T17:10:07.409Z,5.20
2023-11-19T17:12:34.047Z,4.22
2023-11-19T17:15:06.474Z,4.65
2023-11-19T17:17:37.102Z,4.57
2023-11-19T17:20:05.879Z,4.25
2023-11-19T17:22:38.074Z,4.07
2023-11-19T17:27:31.868Z,3.40
2023-11-19T17:29:59.300Z,4.72
2023-11-19T17:32:26.504Z,3.95
2023-11-19T17:34:54.352Z,4.82
2023-11-19T17:37:20.906Z,4.30
2023-11-19T17:39:47.678Z,4.65
2023-11-19T17:42:14.629Z,4.53
2023-11-19T17:44:41.235Z,4.88
2023-11-19T17:47:08.099Z,4.30
2023-11-19T17:49:35.382Z,4.88
2023-11-19T17:52:02.677Z,4.72
2023-11-19T17:54:29.931Z,4.15
2023-11-19T17:56:58.015Z,4.57
2023-11-19T17:59:26.273Z,4.10
2023-11-19T18:01:57.295Z,4.35
2023-11-19T18:04:26.356Z,4.57
2023-11-19T18:06:53.624Z,4.22
2023-11-19T18:09:20.794Z,4.18
2023-11-19T18:11:48.269Z,3.72
2023-11-19T18:14:14.807Z,4.40
2023-11-19T18:16:41.435Z,4.45
2023-11-19T18:19:08.207Z,5.45
2023-11-19T18:21:34.837Z,4.95
2023-11-19T18:24:01.737Z,4.90
2023-11-19T18:28:57.894Z,4.82
2023-11-19T18:31:24.545Z,4.95
2023-11-19T18:33:51.239Z,4.22
2023-11-19T18:36:18.245Z,4.75
2023-11-19T18:38:45.033Z,3.75
2023-11-19T18:41:13.977Z,4.25
2023-11-19T18:43:41.586Z,4.97
2023-11-19T18:46:09.569Z,4.40
2023-11-19T18:48:37.157Z,3.95
2023-11-19T18:51:04.390Z,4.30
2023-11-19T18:53:31.721Z,4.25
2023-11-19T18:55:58.474Z,4.10
2023-11-19T18:58:25.413Z,5.15
2023-11-19T19:00:52.103Z,4.00
2023-11-19T19:03:23.243Z,3.92
2023-11-19T19:05:50.304Z,3.53
2023-11-19T19:08:18.077Z,4.25
2023-11-19T19:10:45.917Z,3.80
2023-11-19T19:13:12.937Z,4.50
2023-11-19T19:15:39.931Z,5.90
2023-11-19T19:18:07.149Z,4.30
2023-11-19T19:20:34.820Z,5.38
2023-11-19T19:23:02.067Z,3.30
2023-11-19T19:25:31.480Z,3.97
2023-11-19T19:28:22.528Z,3.83
2023-11-19T19:30:45.675Z,3.25
2023-11-19T19:33:15.547Z,3.75
2023-11-19T19:35:42.364Z,2.78
2023-11-19T19:38:10.571Z,2.95
2023-11-19T19:40:37.211Z,2.97
2023-11-19T19:43:05.360Z,3.53
2023-11-19T19:45:33.125Z,2.72
2023-11-19T19:48:00.111Z,2.63
2023-11-19T19:50:26.917Z,2.90
2023-11-19T19:52:53.568Z,2.90
2023-11-19T19:55:22.458Z,2.50
2023-11-19T19:57:49.313Z,3.42
2023-11-19T20:00:17.600Z,2.83
2023-11-19T20:02:45.670Z,2.97
2023-11-19T20:05:13.076Z,2.65
2023-11-19T20:07:44.242Z,2.53
2023-11-19T20:10:15.476Z,3.00
2023-11-19T20:12:42.717Z,2.22
2023-11-19T20:15:12.104Z,2.47
2023-11-19T20:17:38.934Z,2.50
2023-11-19T20:20:07.276Z,2.40
2023-11-19T20:22:35.295Z,2.70
2023-11-19T20:25:02.049Z,2.72
2023-11-19T20:27:29.229Z,2.50
2023-11-19T20:29:55.839Z,3.03
2023-11-19T20:32:22.408Z,2.97
2023-11-19T20:34:49.051Z,3.00
2023-11-19T20:37:15.554Z,2.90
2023-11-19T20:39:42.137Z,2.72
2023-11-19T20:42:08.633Z,2.72
2023-11-19T20:44:35.126Z,3.05
2023-11-19T20:47:05.862Z,3.10
2023-11-19T20:49:32.658Z,3.03
2023-11-19T20:51:59.416Z,2.95
2023-11-19T20:56:55.649Z,2.90
2023-11-19T20:59:22.179Z,2.75
2023-11-19T21:01:48.760Z,2.20
2023-11-19T21:04:15.433Z,2.30
2023-11-19T21:09:11.549Z,2.00
2023-11-19T21:11:38.542Z,2.03
2023-11-19T21:14:05.554Z,2.60
2023-11-19T21:16:32.130Z,2.00
2023-11-19T21:18:58.897Z,1.70
2023-11-19T21:21:25.578Z,1.85
2023-11-19T21:23:52.187Z,1.70
2023-11-19T21:26:18.810Z,1.70
2023-11-19T21:28:45.370Z,1.77
2023-11-19T21:31:13.635Z,1.48
2023-11-19T21:33:40.192Z,1.50
2023-11-19T21:36:07.114Z,1.33
2023-11-19T21:38:33.626Z,1.50
2023-11-19T21:41:01.392Z,1.60
2023-11-19T21:43:27.936Z,1.52
2023-11-19T21:45:55.155Z,1.45
2023-11-19T21:48:22.656Z,1.52
2023-11-19T21:50:49.232Z,1.60
2023-11-19T21:53:16.943Z,1.00
2023-11-19T21:55:46.748Z,1.20
2023-11-19T21:58:13.593Z,1.30
2023-11-19T22:00:40.393Z,1.10
2023-11-19T22:03:07.295Z,1.23
2023-11-19T22:05:33.950Z,0.95
2023-11-19T22:10:30.888Z,1.20
2023-11-19T22:12:58.165Z,2.40
2023-11-19T22:15:24.865Z,1.80
2023-11-19T22:17:54.156Z,1.92
2023-11-19T22:22:52.285Z,1.27
2023-11-19T22:25:20.424Z,1.30
2023-11-19T22:27:47.291Z,1.15
2023-11-19T22:30:14.509Z,1.17
2023-11-19T22:32:41.636Z,1.00
2023-11-19T22:35:08.842Z,1.20
2023-11-19T22:37:35.469Z,1.10
2023-11-19T22:40:01.986Z,0.90
2023-11-19T22:42:28.569Z,1.10
2023-11-19T22:44:55.107Z,0.93
2023-11-19T22:47:22.991Z,1.00
2023-11-19T22:49:49.467Z,1.77
2023-11-19T22:52:15.995Z,1.25
2023-11-19T22:54:43.869Z,1.63
2023-11-19T22:57:10.433Z,1.17
2023-11-19T22:59:36.892Z,1.20
2023-11-19T23:02:03.891Z,1.30
2023-11-19T23:04:30.524Z,0.80
2023-11-19T23:06:57.107Z,0.90
2023-11-19T23:09:23.694Z,0.80
2023-11-19T23:11:50.280Z,0.88
2023-11-19T23:14:16.846Z,0.73
2023-11-19T23:16:46.459Z,0.80
2023-11-19T23:19:13.117Z,0.85
2023-11-19T23:21:43.518Z,1.00
2023-11-19T23:24:11.088Z,0.80
2023-11-19T23:26:37.698Z,0.82
2023-11-19T23:29:13.657Z,0.93
2023-11-19T23:31:42.789Z,0.80
2023-11-19T23:34:09.460Z,0.70
2023-11-19T23:36:36.015Z,0.70
2023-11-19T23:39:02.590Z,0.80
2023-11-19T23:41:31.571Z,0.90
2023-11-19T23:43:58.902Z,1.02
2023-11-19T23:46:25.627Z,0.90
2023-11-19T23:51:23.803Z,0.90
2023-11-19T23:53:50.368Z,0.65
2023-11-19T23:56:16.909Z,0.70
2023-11-19T23:58:43.471Z,0.90
